Time,TemperatureF,DewpointF,PressureIn,WindDirection,WindDirectionDegrees,WindSpeedMPH,WindSpeedGustMPH,Humidity,HourlyPrecipIn,Conditions,Clouds,dailyrainin,SolarRadiationWatts/m^2,SoftwareType,DateUTC
2013-08-12 00:01:00,69.2,68.3,30.03,North,-999,0.0,0.0,97,0.00,,,-99.99,0,WeatherLink 6.0.3,2013-08-12 04:01:00,
2013-08-12 00:02:00,69.2,68.3,30.03,NNW,338,0.0,0.0,97,0.00,,,0.00,0,Wunderground v.1.15,2013-08-12 04:02:00,
2013-08-12 00:04:00,69.2,68.3,30.03,NNW,338,0.0,0.0,97,0.00,,,0.00,0,Wunderground v.1.15,2013-08-12 04:04:00,
2013-08-12 00:07:00,69.1,68.2,30.03,NNW,338,0.0,0.0,97,0.00,,,0.00,0,Wunderground v.1.15,2013-08-12 04:07:00,
2013-08-12 00:11:00,69.1,68.2,30.03,NNW,338,0.0,0.0,97,0.00,,,0.00,0,Wunderground v.1.15,2013-08-12 04:11:00,
2013-08-12 00:16:00,69.2,68.3,30.03,NNW,338,0.0,0.0,97,0.00,,,0.00,0,Wunderground v.1.15,2013-08-12 04:16:00,
2013-08-12 00:22:00,69.2,68.3,30.03,NNW,338,0.0,0.0,97,0.00,,,0.00,0,Wunderground v.1.15,2013-08-12 04:22:00,
2013-08-12 00:28:00,69.1,68.2,30.03,NNW,338,0.0,0.0,97,0.00,,,0.00,0,Wunderground v.1.15,2013-08-12 04:28:00,
2013-08-12 00:34:00,69.0,68.1,30.03,NNW,338,0.0,0.0,97,0.00,,,0.00,0,Wunderground v.1.15,2013-08-12 04:34:00,
2013-08-12 00:39:00,68.9,68.0,30.03,NNW,338,0.0,0.0,97,0.00,,,0.00,0,Wunderground v.1.15,2013-08-12 04:39:00,
2013-08-12 00:45:00,68.8,67.9,30.03,NNW,338,0.0,0.0,97,0.00,,,0.00,0,Wunderground v.1.15,2013-08-12 04:45:00,
2013-08-12 00:51:00,68.6,67.7,30.03,NNW,338,0.0,0.0,97,0.00,,,0.00,0,Wunderground v.1.15,2013-08-12 04:51:00,
2013-08-12 00:56:00,68.5,67.6,30.03,NNW,338,0.0,0.0,97,0.00,,,0.00,0,Wunderground v.1.15,2013-08-12 04:56:00,
2013-08-12 01:02:00,68.3,67.4,30.03,NNW,338,0.0,0.0,97,0.00,,,0.00,0,Wunderground v.1.15,2013-08-12 05:02:00,
2013-08-12 01:07:00,68.1,67.2,30.03,NNW,338,0.0,0.0,97,0.00,,,0.00,0,Wunderground v.1.15,2013-08-12 05:07:00,
2013-08-12 01:12:00,68.0,67.1,30.03,NNW,338,0.0,0.0,97,0.00,,,0.00,0,Wunderground v.1.15,2013-08-12 05:12:00,
2013-08-12 01:17:00,67.9,67.0,30.03,NNW,338,0.0,0.0,97,0.00,,,0.00,0,Wunderground v.1.15,2013-08-12 05:17:00,
2013-08-12 01:22:00,67.7,66.8,30.03,NNW,338,0.0,0.0,97,0.00,,,0.00,0,Wunderground v.1.15,2013-08-12 05:22:00,
2013-08-12 01:27:00,67.6,66.7,30.03,NNW,338,0.0,0.0,97,0.00,,,0.00,0,Wunderground v.1.15,2013-08-12 05:27:00,
2013-08-12 01:32:00,67.5,66.6,30.03,NNW,338,0.0,0.0,97,0.00,,,0.00,0,Wunderground v.1.15,2013-08-12 05:32:00,
2013-08-12 01:38:00,67.4,66.5,30.03,NNW,338,0.0,0.0,97,0.00,,,0.00,0,Wunderground v.1.15,2013-08-12 05:38:00,
2013-08-12 01:44:00,67.3,66.4,30.04,NNW,338,0.0,0.0,97,0.00,,,0.00,0,Wunderground v.1.15,2013-08-12 05:44:00,
2013-08-12 01:50:00,67.3,66.4,30.04,NNW,338,0.0,0.0,97,0.00,,,0.00,0,Wunderground v.1.15,2013-08-12 05:50:00,
2013-08-12 01:56:00,67.3,66.7,30.04,NNW,338,0.0,0.0,98,0.00,,,0.00,0,Wunderground v.1.15,2013-08-12 05:56:00,
2013-08-12 02:01:00,67.3,66.7,30.04,North,-999,0.0,0.0,98,0.00,,,-99.99,0,WeatherLink 6.0.3,2013-08-12 06:01:00,
2013-08-12 02:07:00,67.2,66.6,30.04,NNW,338,0.0,0.0,98,0.00,,,0.00,0,Wunderground v.1.15,2013-08-12 06:07:00,
2013-08-12 02:13:00,67.1,66.5,30.04,NNW,338,0.0,0.0,98,0.00,,,0.00,0,Wunderground v.1.15,2013-08-12 06:13:00,
2013-08-12 02:18:00,67.1,66.2,30.04,NNW,338,0.0,0.0,97,0.00,,,0.00,0,Wunderground v.1.15,2013-08-12 06:18:00,
2013-08-12 02:24:00,67.0,66.1,30.04,NNW,338,0.0,0.0,97,0.00,,,0.00,0,Wunderground v.1.15,2013-08-12 06:24:00,
2013-08-12 02:30:00,67.0,66.4,30.04,NNW,338,0.0,0.0,98,0.00,,,0.00,0,Wunderground v.1.15,2013-08-12 06:30:00,
2013-08-12 02:35:00,67.0,66.4,30.04,NNW,338,0.0,0.0,98,0.00,,,0.00,0,Wunderground v.1.15,2013-08-12 06:35:00,
2013-08-12 02:41:00,67.0,66.4,30.04,NNW,338,0.0,0.0,98,0.00,,,0.00,0,Wunderground v.1.15,2013-08-12 06:41:00,
2013-08-12 02:46:00,67.0,66.4,30.04,NNW,338,0.0,0.0,98,0.00,,,0.00,0,Wunderground v.1.15,2013-08-12 06:46:00,
2013-08-12 02:52:00,67.0,66.4,30.04,NNW,338,0.0,0.0,98,0.00,,,0.00,0,Wunderground v.1.15,2013-08-12 06:52:00,
2013-08-12 02:58:00,67.0,66.4,30.03,NNW,338,0.0,0.0,98,0.00,,,0.00,0,Wunderground v.1.15,2013-08-12 06:58:00,
2013-08-12 03:03:00,67.0,66.4,30.03,NNW,338,0.0,0.0,98,0.00,,,0.00,0,Wunderground v.1.15,2013-08-12 07:03:00,
2013-08-12 03:09:00,66.9,66.3,30.03,NNW,338,0.0,0.0,98,0.00,,,0.00,0,Wunderground v.1.15,2013-08-12 07:09:00,
2013-08-12 03:15:00,66.9,66.3,30.03,NNW,338,0.0,0.0,98,0.00,,,0.00,0,Wunderground v.1.15,2013-08-12 07:15:00,
2013-08-12 03:21:00,66.7,66.1,30.03,NNW,338,0.0,0.0,98,0.00,,,0.00,0,Wunderground v.1.15,2013-08-12 07:21:00,
2013-08-12 03:27:00,66.6,66.0,30.03,NNW,338,0.0,0.0,98,0.00,,,0.00,0,Wunderground v.1.15,2013-08-12 07:27:00,
2013-08-12 03:33:00,66.5,65.9,30.03,NNW,338,0.0,0.0,98,0.00,,,0.00,0,Wunderground v.1.15,2013-08-12 07:33:00,
2013-08-12 03:38:00,66.5,65.9,30.03,NNW,338,0.0,0.0,98,0.00,,,0.00,0,Wunderground v.1.15,2013-08-12 07:38:00,
2013-08-12 03:44:00,66.5,65.9,30.03,NNW,338,0.0,0.0,98,0.00,,,0.01,0,Wunderground v.1.15,2013-08-12 07:44:00,
2013-08-12 03:50:00,66.4,65.8,30.03,NNW,338,0.0,0.0,98,0.00,,,0.01,0,Wunderground v.1.15,2013-08-12 07:50:00,
2013-08-12 03:55:00,66.4,65.8,30.03,NNW,338,0.0,0.0,98,0.00,,,0.01,0,Wunderground v.1.15,2013-08-12 07:55:00,
2013-08-12 04:00:00,66.4,65.8,30.03,NNW,338,0.0,0.0,98,0.00,,,0.01,0,Wunderground v.1.15,2013-08-12 08:00:00,
2013-08-12 04:06:00,66.4,65.8,30.03,NNW,338,0.0,0.0,98,0.00,,,0.01,0,Wunderground v.1.15,2013-08-12 08:06:00,
2013-08-12 04:11:00,66.4,65.8,30.03,NNW,338,0.0,0.0,98,0.00,,,0.01,0,Wunderground v.1.15,2013-08-12 08:11:00,
2013-08-12 04:17:00,66.4,65.8,30.03,NNW,338,0.0,0.0,98,0.00,,,0.01,0,Wunderground v.1.15,2013-08-12 08:17:00,
2013-08-12 04:23:00,66.4,65.8,30.03,NNW,338,0.0,0.0,98,0.00,,,0.01,0,Wunderground v.1.15,2013-08-12 08:23:00,
2013-08-12 04:28:00,66.5,65.9,30.03,NNW,338,0.0,0.0,98,0.00,,,0.01,0,Wunderground v.1.15,2013-08-12 08:28:00,
2013-08-12 04:34:00,66.5,65.9,30.03,NNW,338,0.0,0.0,98,0.00,,,0.01,0,Wunderground v.1.15,2013-08-12 08:34:00,
2013-08-12 04:40:00,66.6,66.0,30.03,NNW,338,0.0,0.0,98,0.00,,,0.01,0,Wunderground v.1.15,2013-08-12 08:40:00,
2013-08-12 04:45:00,66.7,66.1,30.03,NNW,338,0.0,0.0,98,0.00,,,0.01,0,Wunderground v.1.15,2013-08-12 08:45:00,
2013-08-12 04:51:00,66.6,66.0,30.03,NNW,338,0.0,0.0,98,0.00,,,0.01,0,Wunderground v.1.15,2013-08-12 08:51:00,
2013-08-12 04:57:00,66.6,66.0,30.03,NNW,338,0.0,0.0,98,0.00,,,0.01,0,Wunderground v.1.15,2013-08-12 08:57:00,
2013-08-12 05:02:00,66.6,66.0,30.03,NNW,338,0.0,0.0,98,0.00,,,0.01,0,Wunderground v.1.15,2013-08-12 09:02:00,
2013-08-12 05:08:00,66.7,66.1,30.03,NNW,338,0.0,0.0,98,0.00,,,0.01,0,Wunderground v.1.15,2013-08-12 09:08:00,
2013-08-12 05:14:00,66.7,66.1,30.03,NNW,338,0.0,0.0,98,0.00,,,0.01,0,Wunderground v.1.15,2013-08-12 09:14:00,
2013-08-12 05:20:00,66.8,66.2,30.03,NNW,338,0.0,0.0,98,0.00,,,0.01,0,Wunderground v.1.15,2013-08-12 09:20:00,
2013-08-12 05:26:00,66.8,66.2,30.03,NNW,338,0.0,0.0,98,0.00,,,0.01,0,Wunderground v.1.15,2013-08-12 09:26:00,
2013-08-12 05:31:00,66.8,66.2,30.03,NNW,338,0.0,0.0,98,0.00,,,0.01,0,Wunderground v.1.15,2013-08-12 09:31:00,
2013-08-12 05:37:00,66.8,66.2,30.03,NNW,338,0.0,0.0,98,0.00,,,0.01,0,Wunderground v.1.15,2013-08-12 09:37:00,
2013-08-12 05:43:00,66.8,66.2,30.03,NNW,338,0.0,0.0,98,0.00,,,0.01,0,Wunderground v.1.15,2013-08-12 09:43:00,
2013-08-12 05:48:00,66.8,66.2,30.03,NNW,338,0.0,0.0,98,0.00,,,0.01,0,Wunderground v.1.15,2013-08-12 09:48:00,
2013-08-12 05:54:00,66.8,66.2,30.03,NNW,338,0.0,0.0,98,0.00,,,0.01,0,Wunderground v.1.15,2013-08-12 09:54:00,
2013-08-12 06:00:00,66.8,66.2,30.03,NNW,338,0.0,0.0,98,0.00,,,0.01,0,Wunderground v.1.15,2013-08-12 10:00:00,
2013-08-12 06:05:00,66.9,66.3,30.03,NNW,338,0.0,0.0,98,0.00,,,0.01,0,Wunderground v.1.15,2013-08-12 10:05:00,
2013-08-12 06:11:00,66.9,66.3,30.03,NNW,338,0.0,0.0,98,0.00,,,0.01,0,Wunderground v.1.15,2013-08-12 10:11:00,
2013-08-12 06:17:00,67.0,66.4,30.03,NNW,338,0.0,0.0,98,0.00,,,0.01,0,Wunderground v.1.15,2013-08-12 10:17:00,
2013-08-12 06:23:00,67.0,66.4,30.04,NNW,338,0.0,0.0,98,0.00,,,0.01,0,Wunderground v.1.15,2013-08-12 10:23:00,
2013-08-12 06:28:00,67.0,66.4,30.04,NNW,338,0.0,0.0,98,0.00,,,0.01,0,Wunderground v.1.15,2013-08-12 10:28:00,
2013-08-12 06:34:00,67.1,66.5,30.04,NNW,338,0.0,0.0,98,0.00,,,0.01,0,Wunderground v.1.15,2013-08-12 10:34:00,
2013-08-12 06:40:00,67.1,66.5,30.04,NNW,338,0.0,0.0,98,0.00,,,0.01,5,Wunderground v.1.15,2013-08-12 10:40:00,
2013-08-12 06:45:00,67.2,66.6,30.04,NNW,338,0.0,0.0,98,0.00,,,0.01,7,Wunderground v.1.15,2013-08-12 10:45:00,
2013-08-12 06:50:00,67.2,66.6,30.04,NNW,338,0.0,0.0,98,0.00,,,0.01,9,Wunderground v.1.15,2013-08-12 10:50:00,
2013-08-12 06:56:00,67.2,66.6,30.05,NNW,338,0.0,0.0,98,0.00,,,0.01,11,Wunderground v.1.15,2013-08-12 10:56:00,
2013-08-12 07:01:00,67.2,66.6,30.05,North,-999,0.0,0.0,98,0.00,,,-99.99,7,WeatherLink 6.0.3,2013-08-12 11:01:00,
2013-08-12 07:07:00,67.2,66.6,30.05,NNW,338,0.0,0.0,98,0.00,,,0.01,16,Wunderground v.1.15,2013-08-12 11:07:00,
2013-08-12 07:12:00,67.1,66.5,30.05,NNW,338,0.0,0.0,98,0.00,,,0.01,19,Wunderground v.1.15,2013-08-12 11:12:00,
2013-08-12 07:17:00,67.1,66.5,30.05,NNW,338,0.0,0.0,98,0.00,,,0.01,25,Wunderground v.1.15,2013-08-12 11:17:00,
2013-08-12 07:22:00,67.0,66.4,30.05,NNW,338,0.0,0.0,98,0.00,,,0.01,25,Wunderground v.1.15,2013-08-12 11:22:00,
2013-08-12 07:28:00,67.0,66.4,30.04,NNW,338,0.0,0.0,98,0.00,,,0.01,30,Wunderground v.1.15,2013-08-12 11:28:00,
2013-08-12 07:33:00,67.0,66.4,30.04,NNW,338,0.0,0.0,98,0.00,,,0.01,39,Wunderground v.1.15,2013-08-12 11:33:00,
2013-08-12 07:39:00,66.9,66.3,30.04,NNW,338,0.0,0.0,98,0.00,,,0.01,40,Wunderground v.1.15,2013-08-12 11:39:00,
2013-08-12 07:44:00,67.0,66.4,30.04,NNW,338,0.0,0.0,98,0.00,,,0.01,42,Wunderground v.1.15,2013-08-12 11:44:00,
2013-08-12 07:50:00,67.0,66.4,30.04,NNW,338,0.0,0.0,98,0.00,,,0.01,47,Wunderground v.1.15,2013-08-12 11:50:00,
2013-08-12 07:56:00,67.0,66.4,30.04,NNW,338,0.0,0.0,98,0.00,,,0.01,56,Wunderground v.1.15,2013-08-12 11:56:00,
2013-08-12 08:01:00,67.1,66.5,30.05,NNW,337,0.0,1.0,98,0.00,,,-99.99,46,WeatherLink 6.0.3,2013-08-12 12:01:00,
2013-08-12 08:07:00,67.2,66.6,30.05,NNW,338,0.0,0.0,98,0.00,,,0.01,60,Wunderground v.1.15,2013-08-12 12:07:00,
2013-08-12 08:12:00,67.3,67.0,30.04,NNW,338,0.0,0.0,99,0.00,,,0.01,72,Wunderground v.1.15,2013-08-12 12:12:00,
2013-08-12 08:18:00,67.4,67.1,30.04,NNW,338,0.0,0.0,99,0.00,,,0.01,67,Wunderground v.1.15,2013-08-12 12:18:00,
2013-08-12 08:24:00,67.4,66.8,30.05,NNW,338,0.0,0.0,98,0.00,,,0.01,76,Wunderground v.1.15,2013-08-12 12:24:00,
2013-08-12 08:29:00,67.4,66.8,30.05,NNW,338,0.0,0.0,98,0.00,,,0.01,83,Wunderground v.1.15,2013-08-12 12:29:00,
2013-08-12 08:35:00,67.4,66.8,30.05,NNW,338,0.0,0.0,98,0.00,,,0.01,70,Wunderground v.1.15,2013-08-12 12:35:00,
2013-08-12 08:40:00,67.5,67.2,30.05,NNW,338,0.0,0.0,99,0.00,,,0.01,79,Wunderground v.1.15,2013-08-12 12:40:00,
2013-08-12 08:46:00,67.6,67.0,30.05,NNW,338,0.0,0.0,98,0.00,,,0.01,102,Wunderground v.1.15,2013-08-12 12:46:00,
2013-08-12 08:52:00,67.6,67.0,30.05,NNW,338,0.0,0.0,98,0.00,,,0.01,105,Wunderground v.1.15,2013-08-12 12:52:00,
2013-08-12 08:57:00,67.7,67.1,30.05,NNW,338,0.0,0.0,98,0.00,,,0.01,97,Wunderground v.1.15,2013-08-12 12:57:00,
2013-08-12 09:02:00,67.8,67.2,30.05,NNW,338,0.0,0.0,98,0.00,,,0.01,95,Wunderground v.1.15,2013-08-12 13:02:00,
2013-08-12 09:07:00,67.9,67.3,30.04,NNW,338,0.0,0.0,98,0.00,,,0.01,111,Wunderground v.1.15,2013-08-12 13:07:00,
2013-08-12 09:12:00,68.0,67.7,30.04,NNW,338,0.0,0.0,99,0.00,,,0.01,114,Wunderground v.1.15,2013-08-12 13:12:00,
2013-08-12 09:18:00,68.0,67.7,30.04,NNW,338,0.0,0.0,99,0.00,,,0.01,121,Wunderground v.1.15,2013-08-12 13:18:00,
2013-08-12 09:24:00,68.2,67.9,30.04,NNW,338,0.0,0.0,99,0.00,,,0.01,123,Wunderground v.1.15,2013-08-12 13:24:00,
2013-08-12 09:29:00,68.3,67.7,30.04,NNW,338,0.0,0.0,98,0.00,,,0.01,148,Wunderground v.1.15,2013-08-12 13:29:00,
2013-08-12 09:35:00,68.7,68.4,30.04,NNW,338,0.0,0.0,99,0.00,,,0.01,186,Wunderground v.1.15,2013-08-12 13:35:00,
2013-08-12 09:41:00,68.9,68.6,30.04,NNW,338,0.0,0.0,99,0.00,,,0.01,207,Wunderground v.1.15,2013-08-12 13:41:00,
2013-08-12 09:47:00,69.7,69.4,30.04,NNW,338,0.0,0.0,99,0.00,,,0.01,220,Wunderground v.1.15,2013-08-12 13:47:00,
2013-08-12 09:53:00,70.6,70.3,30.04,NNW,338,0.0,0.0,99,0.00,,,0.01,183,Wunderground v.1.15,2013-08-12 13:53:00,
2013-08-12 09:59:00,70.9,70.6,30.04,NNW,338,0.0,0.0,99,0.00,,,0.01,171,Wunderground v.1.15,2013-08-12 13:59:00,
2013-08-12 10:04:00,71.2,70.9,30.04,NNW,338,0.0,0.0,99,0.00,,,0.01,183,Wunderground v.1.15,2013-08-12 14:04:00,
2013-08-12 10:09:00,71.7,71.1,30.04,WNW,299,0.0,0.0,98,0.00,,,0.01,162,Wunderground v.1.15,2013-08-12 14:09:00,
2013-08-12 10:15:00,72.1,70.6,30.04,WNW,299,0.0,0.0,95,0.00,,,0.01,134,Wunderground v.1.15,2013-08-12 14:15:00,
2013-08-12 10:21:00,72.1,70.0,30.04,WNW,299,0.0,0.0,93,0.00,,,0.01,121,Wunderground v.1.15,2013-08-12 14:21:00,
2013-08-12 10:27:00,72.2,69.7,30.04,WNW,299,0.0,0.0,92,0.00,,,0.01,153,Wunderground v.1.15,2013-08-12 14:27:00,
2013-08-12 10:33:00,72.7,70.6,30.04,WNW,299,0.0,0.0,93,0.00,,,0.01,130,Wunderground v.1.15,2013-08-12 14:33:00,
2013-08-12 10:39:00,73.4,70.6,30.04,WNW,296,0.0,0.0,91,0.00,,,0.01,128,Wunderground v.1.15,2013-08-12 14:39:00,
2013-08-12 10:44:00,73.7,69.6,30.04,SSE,156,0.0,1.0,87,0.00,,,0.01,153,Wunderground v.1.15,2013-08-12 14:44:00,
2013-08-12 10:50:00,74.0,70.2,30.04,SSE,156,0.0,0.0,88,0.00,,,0.01,141,Wunderground v.1.15,2013-08-12 14:50:00,
2013-08-12 10:56:00,74.5,71.0,30.04,SSE,157,0.0,0.0,89,0.00,,,0.01,162,Wunderground v.1.15,2013-08-12 14:56:00,
2013-08-12 11:01:00,74.9,70.4,30.04,SSE,157,0.0,2.0,86,0.00,,,-99.99,147,WeatherLink 6.0.3,2013-08-12 15:01:00,
2013-08-12 11:07:00,75.7,71.6,30.04,SSE,157,0.0,0.0,87,0.00,,,0.01,257,Wunderground v.1.15,2013-08-12 15:07:00,
2013-08-12 11:12:00,76.0,70.8,30.03,SSE,153,0.0,0.0,84,0.00,,,0.01,237,Wunderground v.1.15,2013-08-12 15:12:00,
2013-08-12 11:17:00,76.2,71.0,30.04,South,178,0.0,0.0,84,0.00,,,0.01,383,Wunderground v.1.15,2013-08-12 15:17:00,
2013-08-12 11:23:00,76.6,71.4,30.04,West,275,0.0,0.0,84,0.00,,,0.01,454,Wunderground v.1.15,2013-08-12 15:23:00,
2013-08-12 11:29:00,76.9,70.3,30.04,SSW,198,0.0,1.0,80,0.00,,,0.01,506,Wunderground v.1.15,2013-08-12 15:29:00,
2013-08-12 11:35:00,77.2,71.3,30.04,SSW,198,0.0,0.0,82,0.00,,,0.01,566,Wunderground v.1.15,2013-08-12 15:35:00,
2013-08-12 11:41:00,77.6,72.0,30.04,WSW,245,0.0,0.0,83,0.00,,,0.01,591,Wunderground v.1.15,2013-08-12 15:41:00,
2013-08-12 11:46:00,77.8,70.0,30.03,ESE,108,0.0,1.0,77,0.00,,,0.01,531,Wunderground v.1.15,2013-08-12 15:46:00,
2013-08-12 11:52:00,78.0,69.8,30.03,ESE,113,0.0,0.0,76,0.00,,,0.01,178,Wunderground v.1.15,2013-08-12 15:52:00,
2013-08-12 11:57:00,78.2,70.8,30.03,East,94,0.0,0.0,78,0.00,,,0.01,510,Wunderground v.1.15,2013-08-12 15:57:00,
2013-08-12 12:02:00,78.2,68.0,30.03,ENE,63,0.0,1.0,71,0.00,,,0.01,533,Wunderground v.1.15,2013-08-12 16:02:00,
2013-08-12 12:08:00,78.5,70.3,30.03,WNW,283,0.0,2.0,76,0.00,,,0.01,418,Wunderground v.1.15,2013-08-12 16:08:00,
2013-08-12 12:14:00,78.6,69.6,30.02,WNW,294,0.0,0.0,74,0.00,,,0.01,624,Wunderground v.1.15,2013-08-12 16:14:00,
2013-08-12 12:19:00,79.1,69.7,30.02,WNW,294,0.0,0.0,73,0.00,,,0.01,691,Wunderground v.1.15,2013-08-12 16:19:00,
2013-08-12 12:25:00,79.6,71.0,30.02,WNW,286,0.0,0.0,75,0.00,,,0.01,701,Wunderground v.1.15,2013-08-12 16:25:00,
2013-08-12 12:30:00,79.9,70.9,30.02,SSW,202,0.0,1.0,74,0.00,,,0.01,724,Wunderground v.1.15,2013-08-12 16:30:00,
2013-08-12 12:36:00,79.9,69.7,30.01,SSW,196,0.0,1.0,71,0.00,,,0.01,751,Wunderground v.1.15,2013-08-12 16:36:00,
2013-08-12 12:41:00,80.0,71.4,30.01,SSW,196,0.0,0.0,75,0.00,,,0.01,770,Wunderground v.1.15,2013-08-12 16:41:00,
2013-08-12 12:47:00,80.2,71.9,30.01,South,171,0.0,1.0,76,0.00,,,0.01,768,Wunderground v.1.15,2013-08-12 16:47:00,
2013-08-12 12:53:00,80.3,71.3,30.01,West,269,0.0,0.0,74,0.00,,,0.01,784,Wunderground v.1.15,2013-08-12 16:53:00,
2013-08-12 12:58:00,80.5,71.0,30.01,West,269,0.0,1.0,73,0.00,,,0.01,773,Wunderground v.1.15,2013-08-12 16:58:00,
2013-08-12 13:03:00,80.7,70.8,30.01,West,269,0.0,0.0,72,0.00,,,0.01,779,Wunderground v.1.15,2013-08-12 17:03:00,
2013-08-12 13:09:00,80.8,70.1,30.01,SSE,167,0.0,0.0,70,0.00,,,0.01,766,Wunderground v.1.15,2013-08-12 17:09:00,
2013-08-12 13:15:00,80.8,70.5,30.00,ESE,109,0.0,1.0,71,0.00,,,0.01,798,Wunderground v.1.15,2013-08-12 17:15:00,
2013-08-12 13:20:00,80.9,69.8,30.00,SSE,157,0.0,0.0,69,0.00,,,0.01,824,Wunderground v.1.15,2013-08-12 17:20:00,
2013-08-12 13:26:00,81.2,72.1,30.00,SE,142,0.0,0.0,74,0.00,,,0.01,810,Wunderground v.1.15,2013-08-12 17:26:00,
2013-08-12 13:32:00,81.2,71.7,30.00,SE,142,0.0,0.0,73,0.00,,,0.01,659,Wunderground v.1.15,2013-08-12 17:32:00,
2013-08-12 13:38:00,80.9,70.6,30.00,SE,133,0.0,1.0,71,0.00,,,0.01,628,Wunderground v.1.15,2013-08-12 17:38:00,
2013-08-12 13:44:00,80.6,70.3,29.99,SE,145,0.0,2.0,71,0.00,,,0.01,846,Wunderground v.1.15,2013-08-12 17:44:00,
2013-08-12 13:49:00,80.6,71.9,29.99,SE,146,0.0,2.0,75,0.00,,,0.01,812,Wunderground v.1.15,2013-08-12 17:49:00,
2013-08-12 13:55:00,81.0,71.1,29.99,NW,325,0.0,2.0,72,0.00,,,0.01,745,Wunderground v.1.15,2013-08-12 17:55:00,
2013-08-12 14:00:00,81.2,72.5,29.99,NW,316,0.0,0.0,75,0.00,,,0.01,800,Wunderground v.1.15,2013-08-12 18:00:00,
2013-08-12 14:05:00,81.4,71.5,29.99,NW,306,0.0,1.0,72,0.00,,,0.01,837,Wunderground v.1.15,2013-08-12 18:05:00,
2013-08-12 14:11:00,81.4,71.1,29.99,West,281,0.0,1.0,71,0.00,,,0.01,847,Wunderground v.1.15,2013-08-12 18:11:00,
2013-08-12 14:16:00,81.4,72.7,29.99,WNW,292,0.0,1.0,75,0.00,,,0.01,853,Wunderground v.1.15,2013-08-12 18:16:00,
2013-08-12 14:22:00,81.3,71.8,29.99,SSE,153,0.0,0.0,73,0.00,,,0.01,223,Wunderground v.1.15,2013-08-12 18:22:00,
2013-08-12 14:27:00,81.2,71.7,29.99,SSW,200,0.0,2.0,73,0.00,,,0.01,838,Wunderground v.1.15,2013-08-12 18:27:00,
2013-08-12 14:34:00,81.3,72.6,29.99,South,181,0.0,2.0,75,0.00,,,0.01,853,Wunderground v.1.15,2013-08-12 18:34:00,
2013-08-12 14:39:00,81.2,71.7,29.99,NW,313,0.0,2.0,73,0.00,,,0.01,881,Wunderground v.1.15,2013-08-12 18:39:00,
2013-08-12 14:45:00,81.2,71.3,29.98,NW,326,0.0,1.0,72,0.00,,,0.01,863,Wunderground v.1.15,2013-08-12 18:45:00,
2013-08-12 14:51:00,81.4,72.3,29.99,NNW,346,0.0,0.0,74,0.00,,,0.01,780,Wunderground v.1.15,2013-08-12 18:51:00,
2013-08-12 14:57:00,81.4,71.5,29.99,West,261,0.0,1.0,72,0.00,,,0.01,297,Wunderground v.1.15,2013-08-12 18:57:00,
2013-08-12 15:02:00,81.1,72.0,29.98,WNW,298,0.0,0.0,74,0.00,,,0.01,260,Wunderground v.1.15,2013-08-12 19:02:00,
2013-08-12 15:08:00,80.9,71.0,29.98,West,277,0.0,0.0,72,0.00,,,0.01,756,Wunderground v.1.15,2013-08-12 19:08:00,
2013-08-12 15:13:00,81.0,70.7,29.98,WSW,239,0.0,0.0,71,0.00,,,0.01,777,Wunderground v.1.15,2013-08-12 19:13:00,
2013-08-12 15:19:00,81.1,71.6,29.98,West,263,0.0,1.0,73,0.00,,,0.01,788,Wunderground v.1.15,2013-08-12 19:19:00,
2013-08-12 15:25:00,81.2,72.9,29.98,West,262,0.0,0.0,76,0.00,,,0.01,809,Wunderground v.1.15,2013-08-12 19:25:00,
2013-08-12 15:31:00,81.3,71.8,29.97,West,270,0.0,2.0,73,0.00,,,-99.99,753,WeatherLink 6.0.3,2013-08-12 19:31:00,
2013-08-12 15:36:00,81.6,72.5,29.97,SSE,165,0.0,0.0,74,0.00,,,0.01,795,Wunderground v.1.15,2013-08-12 19:36:00,
2013-08-12 15:42:00,81.6,71.7,29.97,SSE,165,0.0,0.0,72,0.00,,,0.01,796,Wunderground v.1.15,2013-08-12 19:42:00,
2013-08-12 15:47:00,81.4,70.7,29.97,SSE,165,0.0,1.0,70,0.00,,,0.01,791,Wunderground v.1.15,2013-08-12 19:47:00,
2013-08-12 15:53:00,81.6,72.9,29.97,NNW,343,0.0,0.0,75,0.00,,,0.01,777,Wunderground v.1.15,2013-08-12 19:53:00,
2013-08-12 15:58:00,81.6,70.4,29.96,SW,227,0.0,1.0,69,0.00,,,0.01,729,Wunderground v.1.15,2013-08-12 19:58:00,
2013-08-12 16:04:00,81.7,72.2,29.96,SW,227,0.0,0.0,73,0.00,,,0.01,707,Wunderground v.1.15,2013-08-12 20:04:00,
2013-08-12 16:10:00,81.9,70.7,29.95,SW,227,0.0,0.0,69,0.00,,,0.01,661,Wunderground v.1.15,2013-08-12 20:10:00,
2013-08-12 16:16:00,81.9,72.4,29.95,SW,225,0.0,1.0,73,0.00,,,0.01,707,Wunderground v.1.15,2013-08-12 20:16:00,
2013-08-12 16:22:00,81.8,70.6,29.95,SW,225,0.0,0.0,69,0.00,,,0.01,656,Wunderground v.1.15,2013-08-12 20:22:00,
2013-08-12 16:28:00,81.6,72.1,29.95,SW,225,0.0,0.0,73,0.00,,,0.01,684,Wunderground v.1.15,2013-08-12 20:28:00,
2013-08-12 16:34:00,81.5,72.8,29.94,SW,227,0.0,0.0,75,0.00,,,0.01,619,Wunderground v.1.15,2013-08-12 20:34:00,
2013-08-12 16:40:00,81.6,71.7,29.94,WSW,242,0.0,2.0,72,0.00,,,0.01,394,Wunderground v.1.15,2013-08-12 20:40:00,
2013-08-12 16:45:00,81.7,72.6,29.94,WSW,242,0.0,2.0,74,0.00,,,0.01,652,Wunderground v.1.15,2013-08-12 20:45:00,
2013-08-12 16:51:00,81.7,72.2,29.94,WSW,242,0.0,0.0,73,0.00,,,0.01,596,Wunderground v.1.15,2013-08-12 20:51:00,
2013-08-12 16:57:00,81.9,72.0,29.94,WSW,242,0.0,0.0,72,0.00,,,0.01,622,Wunderground v.1.15,2013-08-12 20:57:00,
2013-08-12 17:02:00,81.9,72.0,29.94,WSW,242,0.0,0.0,72,0.00,,,0.01,596,Wunderground v.1.15,2013-08-12 21:02:00,
2013-08-12 17:08:00,82.1,74.2,29.94,WSW,242,0.0,0.0,77,0.00,,,0.01,610,Wunderground v.1.15,2013-08-12 21:08:00,
2013-08-12 17:14:00,82.0,71.2,29.94,WSW,242,0.0,0.0,70,0.00,,,0.01,591,Wunderground v.1.15,2013-08-12 21:14:00,
2013-08-12 17:20:00,81.5,72.4,29.94,WSW,242,0.0,0.0,74,0.00,,,0.01,160,Wunderground v.1.15,2013-08-12 21:20:00,
2013-08-12 17:26:00,80.9,71.8,29.94,WSW,242,0.0,0.0,74,0.00,,,0.01,109,Wunderground v.1.15,2013-08-12 21:26:00,
2013-08-12 17:31:00,80.6,72.7,29.94,WSW,247,0.0,1.0,77,0.00,,,-99.99,367,WeatherLink 6.0.3,2013-08-12 21:31:00,
2013-08-12 17:37:00,80.5,71.4,29.93,WSW,242,0.0,0.0,74,0.00,,,0.01,485,Wunderground v.1.15,2013-08-12 21:37:00,
2013-08-12 17:42:00,80.5,72.6,29.94,WSW,242,0.0,0.0,77,0.00,,,0.01,283,Wunderground v.1.15,2013-08-12 21:42:00,
2013-08-12 17:48:00,80.3,71.6,29.93,WSW,242,0.0,1.0,75,0.00,,,0.01,227,Wunderground v.1.15,2013-08-12 21:48:00,
2013-08-12 17:54:00,80.2,72.7,29.93,WSW,242,0.0,0.0,78,0.00,,,0.01,452,Wunderground v.1.15,2013-08-12 21:54:00,
2013-08-12 18:01:00,80.2,72.7,29.93,WSW,242,0.0,0.0,78,0.00,,,0.01,241,Wunderground v.1.15,2013-08-12 22:01:00,
2013-08-12 18:06:00,80.2,72.3,29.93,WSW,242,0.0,0.0,77,0.00,,,0.01,193,Wunderground v.1.15,2013-08-12 22:06:00,
2013-08-12 18:12:00,80.2,71.2,29.93,WSW,242,0.0,0.0,74,0.00,,,0.01,109,Wunderground v.1.15,2013-08-12 22:12:00,
2013-08-12 18:18:00,80.1,71.8,29.93,WSW,242,0.0,0.0,76,0.00,,,0.01,132,Wunderground v.1.15,2013-08-12 22:18:00,
2013-08-12 18:24:00,79.7,70.3,29.93,WSW,242,0.0,0.0,73,0.00,,,0.01,69,Wunderground v.1.15,2013-08-12 22:24:00,
2013-08-12 18:29:00,79.3,70.7,29.92,WSW,242,0.0,0.0,75,0.00,,,0.01,67,Wunderground v.1.15,2013-08-12 22:29:00,
2013-08-12 18:35:00,79.0,71.2,29.92,WSW,242,0.0,0.0,77,0.00,,,0.01,77,Wunderground v.1.15,2013-08-12 22:35:00,
2013-08-12 18:41:00,78.7,70.9,29.92,WSW,242,0.0,0.0,77,0.00,,,0.01,98,Wunderground v.1.15,2013-08-12 22:41:00,
2013-08-12 18:47:00,78.3,70.1,29.92,WSW,242,0.0,0.0,76,0.00,,,0.01,51,Wunderground v.1.15,2013-08-12 22:47:00,
2013-08-12 18:53:00,78.1,70.3,29.92,WSW,242,0.0,0.0,77,0.00,,,0.01,69,Wunderground v.1.15,2013-08-12 22:53:00,
2013-08-12 18:58:00,77.9,70.9,29.92,WSW,242,0.0,0.0,79,0.00,,,0.01,67,Wunderground v.1.15,2013-08-12 22:58:00,
2013-08-12 19:03:00,77.6,70.2,29.92,WSW,242,0.0,0.0,78,0.00,,,0.01,44,Wunderground v.1.15,2013-08-12 23:03:00,
2013-08-12 19:09:00,77.3,69.9,29.92,WSW,242,0.0,0.0,78,0.00,,,0.01,49,Wunderground v.1.15,2013-08-12 23:09:00,
2013-08-12 19:14:00,77.0,70.4,29.92,WSW,242,0.0,0.0,80,0.00,,,0.01,69,Wunderground v.1.15,2013-08-12 23:14:00,
2013-08-12 19:20:00,76.8,70.2,29.91,WSW,242,0.0,0.0,80,0.00,,,0.01,54,Wunderground v.1.15,2013-08-12 23:20:00,
2013-08-12 19:26:00,76.5,70.6,29.91,WSW,242,0.0,0.0,82,0.00,,,0.01,39,Wunderground v.1.15,2013-08-12 23:26:00,
2013-08-12 19:32:00,76.2,71.0,29.91,WSW,242,0.0,0.0,84,0.00,,,0.01,32,Wunderground v.1.15,2013-08-12 23:32:00,
2013-08-12 19:38:00,75.9,70.7,29.90,WSW,242,0.0,0.0,84,0.00,,,0.01,32,Wunderground v.1.15,2013-08-12 23:38:00,
2013-08-12 19:44:00,75.5,70.3,29.90,WSW,242,0.0,0.0,84,0.00,,,0.01,32,Wunderground v.1.15,2013-08-12 23:44:00,
2013-08-12 19:49:00,75.1,70.6,29.91,WSW,242,0.0,0.0,86,0.00,,,0.01,26,Wunderground v.1.15,2013-08-12 23:49:00,
2013-08-12 19:55:00,74.7,70.9,29.91,WSW,242,0.0,0.0,88,0.00,,,0.01,19,Wunderground v.1.15,2013-08-12 23:55:00,
2013-08-12 20:01:00,74.4,70.6,29.91,North,-999,0.0,0.0,88,0.00,,,-99.99,26,WeatherLink 6.0.3,2013-08-13 00:01:00,
2013-08-12 20:07:00,73.9,70.5,29.91,WSW,242,0.0,0.0,89,0.00,,,0.01,9,Wunderground v.1.15,2013-08-13 00:07:00,
2013-08-12 20:13:00,73.4,70.0,29.90,WSW,242,0.0,0.0,89,0.00,,,0.01,5,Wunderground v.1.15,2013-08-13 00:13:00,
2013-08-12 20:18:00,73.1,70.0,29.91,WSW,242,0.0,0.0,90,0.00,,,0.01,0,Wunderground v.1.15,2013-08-13 00:18:00,
2013-08-12 20:23:00,72.8,69.7,29.90,WSW,242,0.0,0.0,90,0.00,,,0.01,0,Wunderground v.1.15,2013-08-13 00:23:00,
2013-08-12 20:29:00,72.4,69.6,29.90,WSW,242,0.0,0.0,91,0.00,,,0.01,0,Wunderground v.1.15,2013-08-13 00:29:00,
2013-08-12 20:34:00,72.1,69.3,29.90,WSW,242,0.0,0.0,91,0.00,,,0.01,0,Wunderground v.1.15,2013-08-13 00:34:00,
2013-08-12 20:40:00,71.8,69.0,29.91,WSW,242,0.0,0.0,91,0.00,,,0.01,0,Wunderground v.1.15,2013-08-13 00:40:00,
2013-08-12 20:46:00,71.5,69.1,29.91,WSW,242,0.0,0.0,92,0.00,,,0.01,0,Wunderground v.1.15,2013-08-13 00:46:00,
2013-08-12 20:52:00,71.1,68.7,29.91,WSW,242,0.0,0.0,92,0.00,,,0.01,0,Wunderground v.1.15,2013-08-13 00:52:00,
2013-08-12 20:58:00,70.7,68.6,29.91,WSW,242,0.0,0.0,93,0.00,,,0.01,0,Wunderground v.1.15,2013-08-13 00:58:00,
2013-08-12 21:03:00,70.5,68.4,29.91,WSW,242,0.0,0.0,93,0.00,,,0.01,0,Wunderground v.1.15,2013-08-13 01:03:00,
2013-08-12 21:09:00,70.3,68.2,29.91,WSW,242,0.0,0.0,93,0.00,,,0.01,0,Wunderground v.1.15,2013-08-13 01:09:00,
2013-08-12 21:15:00,70.1,68.3,29.91,WSW,242,0.0,0.0,94,0.00,,,0.01,0,Wunderground v.1.15,2013-08-13 01:15:00,
2013-08-12 21:20:00,70.0,68.2,29.91,WSW,242,0.0,0.0,94,0.00,,,0.01,0,Wunderground v.1.15,2013-08-13 01:20:00,
2013-08-12 21:26:00,69.8,68.0,29.91,WSW,242,0.0,0.0,94,0.00,,,0.01,0,Wunderground v.1.15,2013-08-13 01:26:00,
2013-08-12 21:31:00,69.7,67.9,29.91,WSW,242,0.0,0.0,94,0.00,,,0.01,0,Wunderground v.1.15,2013-08-13 01:31:00,
2013-08-12 21:36:00,69.6,68.1,29.91,WSW,242,0.0,0.0,95,0.00,,,0.01,0,Wunderground v.1.15,2013-08-13 01:36:00,
2013-08-12 21:42:00,69.5,68.0,29.91,WSW,242,0.0,0.0,95,0.00,,,0.01,0,Wunderground v.1.15,2013-08-13 01:42:00,
2013-08-12 21:47:00,69.4,67.9,29.91,WSW,242,0.0,0.0,95,0.00,,,0.01,0,Wunderground v.1.15,2013-08-13 01:47:00,
2013-08-12 21:53:00,69.3,67.8,29.91,WSW,242,0.0,0.0,95,0.00,,,0.01,0,Wunderground v.1.15,2013-08-13 01:53:00,
2013-08-12 21:59:00,69.3,67.8,29.91,WSW,242,0.0,0.0,95,0.00,,,0.01,0,Wunderground v.1.15,2013-08-13 01:59:00,
2013-08-12 22:04:00,69.2,67.7,29.91,WSW,242,0.0,0.0,95,0.00,,,0.01,0,Wunderground v.1.15,2013-08-13 02:04:00,
2013-08-12 22:10:00,69.2,68.0,29.91,WSW,242,0.0,0.0,96,0.00,,,0.01,0,Wunderground v.1.15,2013-08-13 02:10:00,
2013-08-12 22:16:00,69.2,68.0,29.91,WSW,242,0.0,0.0,96,0.00,,,0.01,0,Wunderground v.1.15,2013-08-13 02:16:00,
2013-08-12 22:22:00,69.1,67.9,29.90,WSW,242,0.0,0.0,96,0.00,,,0.01,0,Wunderground v.1.15,2013-08-13 02:22:00,
2013-08-12 22:28:00,69.0,67.8,29.90,WSW,242,0.0,0.0,96,0.00,,,0.01,0,Wunderground v.1.15,2013-08-13 02:28:00,
2013-08-12 22:33:00,68.9,67.7,29.90,WSW,242,0.0,0.0,96,0.00,,,0.01,0,Wunderground v.1.15,2013-08-13 02:33:00,
2013-08-12 22:39:00,68.9,67.7,29.89,WSW,242,0.0,0.0,96,0.00,,,0.01,0,Wunderground v.1.15,2013-08-13 02:39:00,
2013-08-12 22:45:00,68.9,67.7,29.89,WSW,242,0.0,0.0,96,0.00,,,0.01,0,Wunderground v.1.15,2013-08-13 02:45:00,
2013-08-12 22:50:00,68.9,67.7,29.88,WSW,242,0.0,0.0,96,0.00,,,0.01,0,Wunderground v.1.15,2013-08-13 02:50:00,
2013-08-12 22:56:00,68.9,67.7,29.88,WSW,242,0.0,0.0,96,0.00,,,0.01,0,Wunderground v.1.15,2013-08-13 02:56:00,
2013-08-12 23:01:00,68.9,67.7,29.88,North,-999,0.0,0.0,96,0.00,,,-99.99,0,WeatherLink 6.0.3,2013-08-13 03:01:00,
2013-08-12 23:07:00,68.9,67.7,29.88,WSW,242,0.0,0.0,96,0.00,,,0.01,0,Wunderground v.1.15,2013-08-13 03:07:00,
2013-08-12 23:12:00,68.8,67.6,29.87,WSW,242,0.0,0.0,96,0.00,,,0.01,0,Wunderground v.1.15,2013-08-13 03:12:00,
2013-08-12 23:18:00,68.8,67.6,29.87,WSW,242,0.0,0.0,96,0.00,,,0.01,0,Wunderground v.1.15,2013-08-13 03:18:00,
2013-08-12 23:24:00,68.8,67.6,29.87,WSW,242,0.0,0.0,96,0.00,,,0.01,0,Wunderground v.1.15,2013-08-13 03:24:00,
2013-08-12 23:30:00,68.8,67.6,29.87,WSW,242,0.0,0.0,96,0.00,,,0.01,0,Wunderground v.1.15,2013-08-13 03:30:00,
2013-08-12 23:36:00,68.7,67.5,29.88,WSW,242,0.0,0.0,96,0.00,,,0.01,0,Wunderground v.1.15,2013-08-13 03:36:00,
2013-08-12 23:42:00,68.7,67.5,29.87,WSW,242,0.0,0.0,96,0.00,,,0.01,0,Wunderground v.1.15,2013-08-13 03:42:00,
2013-08-12 23:48:00,68.7,67.5,29.87,WSW,242,0.0,0.0,96,0.00,,,0.01,0,Wunderground v.1.15,2013-08-13 03:48:00,
2013-08-12 23:54:00,68.7,67.5,29.87,WSW,242,0.0,0.0,96,0.00,,,0.01,0,Wunderground v.1.15,2013-08-13 03:54:00,
2013-08-12 23:59:00,68.7,67.5,29.87,WSW,242,0.0,0.0,96,0.00,,,0.01,0,Wunderground v.1.15,2013-08-13 03:59:00,